sensor_id;sensor_type;location;lat;lon;timestamp;temperature;humidity
24250;DHT22;12379;49.820;8.648;2023-05-07T00:01:33;16.50;99.90
24250;DHT22;12379;49.820;8.648;2023-05-07T00:03:58;16.40;99.90
24250;DHT22;12379;49.820;8.648;2023-05-07T00:06:24;16.30;99.90
24250;DHT22;12379;49.820;8.648;2023-05-07T00:08:51;16.30;99.90
24250;DHT22;12379;49.820;8.648;2023-05-07T00:11:16;16.20;99.90
24250;DHT22;12379;49.820;8.648;2023-05-07T00:13:42;16.20;99.90
24250;DHT22;12379;49.820;8.648;2023-05-07T00:16:07;16.20;99.90
24250;DHT22;12379;49.820;8.648;2023-05-07T00:18:33;16.20;99.90
24250;DHT22;12379;49.820;8.648;2023-05-07T00:20:58;16.20;99.90
24250;DHT22;12379;49.820;8.648;2023-05-07T00:23:24;16.20;99.90
24250;DHT22;12379;49.820;8.648;2023-05-07T00:25:50;16.20;99.90
24250;DHT22;12379;49.820;8.648;2023-05-07T00:28:15;16.20;99.90
24250;DHT22;12379;49.820;8.648;2023-05-07T00:30:41;16.30;99.90
24250;DHT22;12379;49.820;8.648;2023-05-07T00:33:06;16.30;99.90
24250;DHT22;12379;49.820;8.648;2023-05-07T00:35:32;16.30;99.90
24250;DHT22;12379;49.820;8.648;2023-05-07T00:37:57;16.30;99.90
24250;DHT22;12379;49.820;8.648;2023-05-07T00:40:23;16.20;99.90
24250;DHT22;12379;49.820;8.648;2023-05-07T00:42:49;16.20;99.90
24250;DHT22;12379;49.820;8.648;2023-05-07T00:45:15;16.30;99.90
24250;DHT22;12379;49.820;8.648;2023-05-07T00:47:41;16.30;99.90
24250;DHT22;12379;49.820;8.648;2023-05-07T00:50:08;16.10;99.90
24250;DHT22;12379;49.820;8.648;2023-05-07T00:52:35;16.00;99.90
24250;DHT22;12379;49.820;8.648;2023-05-07T00:55:05;15.90;99.90
24250;DHT22;12379;49.820;8.648;2023-05-07T00:57:35;15.90;99.90
24250;DHT22;12379;49.820;8.648;2023-05-07T01:00:03;15.90;99.90
24250;DHT22;12379;49.820;8.648;2023-05-07T01:02:29;15.90;99.90
24250;DHT22;12379;49.820;8.648;2023-05-07T01:04:55;15.90;99.90
24250;DHT22;12379;49.820;8.648;2023-05-07T01:07:21;15.90;99.90
24250;DHT22;12379;49.820;8.648;2023-05-07T01:09:49;16.00;99.90
24250;DHT22;12379;49.820;8.648;2023-05-07T01:12:15;15.90;99.90
24250;DHT22;12379;49.820;8.648;2023-05-07T01:14:41;15.80;99.90
24250;DHT22;12379;49.820;8.648;2023-05-07T01:17:07;15.70;99.90
24250;DHT22;12379;49.820;8.648;2023-05-07T01:19:33;15.50;99.90
24250;DHT22;12379;49.820;8.648;2023-05-07T01:22:07;15.50;99.90
24250;DHT22;12379;49.820;8.648;2023-05-07T01:24:33;15.40;99.90
24250;DHT22;12379;49.820;8.648;2023-05-07T01:27:00;15.30;99.90
24250;DHT22;12379;49.820;8.648;2023-05-07T01:29:27;15.30;99.90
24250;DHT22;12379;49.820;8.648;2023-05-07T01:31:52;15.50;99.90
24250;DHT22;12379;49.820;8.648;2023-05-07T01:34:19;15.60;99.90
24250;DHT22;12379;49.820;8.648;2023-05-07T01:36:46;15.70;99.90
24250;DHT22;12379;49.820;8.648;2023-05-07T01:39:12;15.70;99.90
24250;DHT22;12379;49.820;8.648;2023-05-07T01:41:38;15.80;99.90
24250;DHT22;12379;49.820;8.648;2023-05-07T01:44:03;15.70;99.90
24250;DHT22;12379;49.820;8.648;2023-05-07T01:46:31;15.70;99.90
24250;DHT22;12379;49.820;8.648;2023-05-07T01:48:57;15.80;99.90
24250;DHT22;12379;49.820;8.648;2023-05-07T01:51:23;15.80;99.90
24250;DHT22;12379;49.820;8.648;2023-05-07T01:53:49;15.80;99.90
24250;DHT22;12379;49.820;8.648;2023-05-07T01:56:17;15.80;99.90
24250;DHT22;12379;49.820;8.648;2023-05-07T01:58:45;15.80;99.90
24250;DHT22;12379;49.820;8.648;2023-05-07T02:01:12;15.70;99.90
24250;DHT22;12379;49.820;8.648;2023-05-07T02:03:38;15.60;99.90
24250;DHT22;12379;49.820;8.648;2023-05-07T02:06:03;15.50;99.90
24250;DHT22;12379;49.820;8.648;2023-05-07T02:08:29;15.40;99.90
24250;DHT22;12379;49.820;8.648;2023-05-07T02:10:55;15.40;99.90
24250;DHT22;12379;49.820;8.648;2023-05-07T02:13:20;15.40;99.90
24250;DHT22;12379;49.820;8.648;2023-05-07T02:15:47;15.50;99.90
24250;DHT22;12379;49.820;8.648;2023-05-07T02:18:16;15.50;99.90
24250;DHT22;12379;49.820;8.648;2023-05-07T02:20:42;15.50;99.90
24250;DHT22;12379;49.820;8.648;2023-05-07T02:23:07;15.60;99.90
24250;DHT22;12379;49.820;8.648;2023-05-07T02:25:33;15.50;99.90
24250;DHT22;12379;49.820;8.648;2023-05-07T02:27:58;15.50;99.90
24250;DHT22;12379;49.820;8.648;2023-05-07T02:30:25;15.60;99.90
24250;DHT22;12379;49.820;8.648;2023-05-07T02:32:51;15.60;99.90
24250;DHT22;12379;49.820;8.648;2023-05-07T02:35:16;15.60;99.90
24250;DHT22;12379;49.820;8.648;2023-05-07T02:37:42;15.50;99.90
24250;DHT22;12379;49.820;8.648;2023-05-07T02:40:08;15.50;99.90
24250;DHT22;12379;49.820;8.648;2023-05-07T02:42:34;15.50;99.90
24250;DHT22;12379;49.820;8.648;2023-05-07T02:44:59;15.50;99.90
24250;DHT22;12379;49.820;8.648;2023-05-07T02:47:25;15.60;99.90
24250;DHT22;12379;49.820;8.648;2023-05-07T02:49:54;15.60;99.90
24250;DHT22;12379;49.820;8.648;2023-05-07T02:52:20;15.60;99.90
24250;DHT22;12379;49.820;8.648;2023-05-07T02:54:46;15.70;99.90
24250;DHT22;12379;49.820;8.648;2023-05-07T02:57:11;15.70;99.90
24250;DHT22;12379;49.820;8.648;2023-05-07T02:59:37;15.70;99.90
24250;DHT22;12379;49.820;8.648;2023-05-07T03:02:02;15.70;99.90
24250;DHT22;12379;49.820;8.648;2023-05-07T03:04:28;15.70;99.90
24250;DHT22;12379;49.820;8.648;2023-05-07T03:06:53;15.40;99.90
24250;DHT22;12379;49.820;8.648;2023-05-07T03:09:19;15.20;99.90
24250;DHT22;12379;49.820;8.648;2023-05-07T03:11:44;15.10;99.90
24250;DHT22;12379;49.820;8.648;2023-05-07T03:14:10;15.10;99.90
24250;DHT22;12379;49.820;8.648;2023-05-07T03:16:35;15.10;99.90
24250;DHT22;12379;49.820;8.648;2023-05-07T03:19:01;15.10;99.90
24250;DHT22;12379;49.820;8.648;2023-05-07T03:21:26;15.10;99.90
24250;DHT22;12379;49.820;8.648;2023-05-07T03:23:52;15.20;99.90
24250;DHT22;12379;49.820;8.648;2023-05-07T03:26:18;15.30;99.90
24250;DHT22;12379;49.820;8.648;2023-05-07T03:28:44;15.30;99.90
24250;DHT22;12379;49.820;8.648;2023-05-07T03:31:09;15.30;99.90
24250;DHT22;12379;49.820;8.648;2023-05-07T03:33:35;15.20;99.90
24250;DHT22;12379;49.820;8.648;2023-05-07T03:36:04;15.20;99.90
24250;DHT22;12379;49.820;8.648;2023-05-07T03:38:29;15.20;99.90
24250;DHT22;12379;49.820;8.648;2023-05-07T03:40:55;15.30;99.90
24250;DHT22;12379;49.820;8.648;2023-05-07T03:43:21;15.40;99.90
24250;DHT22;12379;49.820;8.648;2023-05-07T03:45:46;15.40;99.90
24250;DHT22;12379;49.820;8.648;2023-05-07T03:48:12;15.40;99.90
24250;DHT22;12379;49.820;8.648;2023-05-07T03:50:37;15.40;99.90
24250;DHT22;12379;49.820;8.648;2023-05-07T03:53:03;15.40;99.90
24250;DHT22;12379;49.820;8.648;2023-05-07T03:55:28;15.40;99.90
24250;DHT22;12379;49.820;8.648;2023-05-07T03:57:54;15.50;99.90
24250;DHT22;12379;49.820;8.648;2023-05-07T04:00:21;15.60;99.90
24250;DHT22;12379;49.820;8.648;2023-05-07T04:02:47;15.60;99.90
24250;DHT22;12379;49.820;8.648;2023-05-07T04:05:14;15.60;99.90
24250;DHT22;12379;49.820;8.648;2023-05-07T04:07:40;15.60;99.90
24250;DHT22;12379;49.820;8.648;2023-05-07T04:10:06;15.60;99.90
24250;DHT22;12379;49.820;8.648;2023-05-07T04:12:31;15.60;99.90
24250;DHT22;12379;49.820;8.648;2023-05-07T04:14:57;15.60;99.90
24250;DHT22;12379;49.820;8.648;2023-05-07T04:17:22;15.60;99.90
24250;DHT22;12379;49.820;8.648;2023-05-07T04:19:48;15.70;99.90
24250;DHT22;12379;49.820;8.648;2023-05-07T04:22:13;15.70;99.90
24250;DHT22;12379;49.820;8.648;2023-05-07T04:24:39;15.80;99.90
24250;DHT22;12379;49.820;8.648;2023-05-07T04:27:04;15.80;99.90
24250;DHT22;12379;49.820;8.648;2023-05-07T04:29:31;15.80;99.90
24250;DHT22;12379;49.820;8.648;2023-05-07T04:31:57;15.80;99.90
24250;DHT22;12379;49.820;8.648;2023-05-07T04:34:24;15.80;99.90
24250;DHT22;12379;49.820;8.648;2023-05-07T04:36:49;15.80;99.90
24250;DHT22;12379;49.820;8.648;2023-05-07T04:39:15;15.90;99.90
24250;DHT22;12379;49.820;8.648;2023-05-07T04:41:40;15.90;99.90
24250;DHT22;12379;49.820;8.648;2023-05-07T04:44:06;15.90;99.90
24250;DHT22;12379;49.820;8.648;2023-05-07T04:46:32;15.90;99.90
24250;DHT22;12379;49.820;8.648;2023-05-07T04:48:57;15.90;99.90
24250;DHT22;12379;49.820;8.648;2023-05-07T04:51:23;15.80;99.90
24250;DHT22;12379;49.820;8.648;2023-05-07T04:53:48;15.80;99.90
24250;DHT22;12379;49.820;8.648;2023-05-07T04:56:14;15.90;99.90
24250;DHT22;12379;49.820;8.648;2023-05-07T04:58:40;15.90;99.90
24250;DHT22;12379;49.820;8.648;2023-05-07T05:01:05;16.00;99.90
24250;DHT22;12379;49.820;8.648;2023-05-07T05:03:31;16.00;99.90
24250;DHT22;12379;49.820;8.648;2023-05-07T05:05:57;16.00;99.90
24250;DHT22;12379;49.820;8.648;2023-05-07T05:08:24;15.90;99.90
24250;DHT22;12379;49.820;8.648;2023-05-07T05:10:50;15.90;99.90
24250;DHT22;12379;49.820;8.648;2023-05-07T05:13:16;16.00;99.90
24250;DHT22;12379;49.820;8.648;2023-05-07T05:15:41;16.00;99.90
24250;DHT22;12379;49.820;8.648;2023-05-07T05:18:07;16.00;99.90
24250;DHT22;12379;49.820;8.648;2023-05-07T05:20:32;16.00;99.90
24250;DHT22;12379;49.820;8.648;2023-05-07T05:22:58;16.10;99.90
24250;DHT22;12379;49.820;8.648;2023-05-07T05:25:23;16.20;99.90
24250;DHT22;12379;49.820;8.648;2023-05-07T05:27:49;16.20;99.90
24250;DHT22;12379;49.820;8.648;2023-05-07T05:30:14;16.30;99.90
24250;DHT22;12379;49.820;8.648;2023-05-07T05:32:40;16.40;99.90
24250;DHT22;12379;49.820;8.648;2023-05-07T05:35:06;16.50;99.90
24250;DHT22;12379;49.820;8.648;2023-05-07T05:37:31;16.60;99.90
24250;DHT22;12379;49.820;8.648;2023-05-07T05:39:57;16.80;99.90
24250;DHT22;12379;49.820;8.648;2023-05-07T05:42:23;16.90;99.90
24250;DHT22;12379;49.820;8.648;2023-05-07T05:44:48;16.90;99.90
24250;DHT22;12379;49.820;8.648;2023-05-07T05:47:14;16.90;99.90
24250;DHT22;12379;49.820;8.648;2023-05-07T05:49:40;16.90;99.90
24250;DHT22;12379;49.820;8.648;2023-05-07T05:52:05;16.90;99.90
24250;DHT22;12379;49.820;8.648;2023-05-07T05:54:31;17.00;99.90
24250;DHT22;12379;49.820;8.648;2023-05-07T05:56:56;17.10;99.90
24250;DHT22;12379;49.820;8.648;2023-05-07T05:59:22;17.20;99.90
24250;DHT22;12379;49.820;8.648;2023-05-07T06:01:48;17.20;99.90
24250;DHT22;12379;49.820;8.648;2023-05-07T06:04:13;17.20;99.90
24250;DHT22;12379;49.820;8.648;2023-05-07T06:06:39;17.30;99.90
24250;DHT22;12379;49.820;8.648;2023-05-07T06:09:04;17.30;99.90
24250;DHT22;12379;49.820;8.648;2023-05-07T06:11:31;17.40;99.90
24250;DHT22;12379;49.820;8.648;2023-05-07T06:13:57;17.40;99.90
24250;DHT22;12379;49.820;8.648;2023-05-07T06:16:22;17.40;99.90
24250;DHT22;12379;49.820;8.648;2023-05-07T06:18:48;17.40;99.90
24250;DHT22;12379;49.820;8.648;2023-05-07T06:21:13;17.50;99.90
24250;DHT22;12379;49.820;8.648;2023-05-07T06:23:40;17.50;99.90
24250;DHT22;12379;49.820;8.648;2023-05-07T06:26:06;17.50;99.90
24250;DHT22;12379;49.820;8.648;2023-05-07T06:28:32;17.50;99.90
24250;DHT22;12379;49.820;8.648;2023-05-07T06:31:18;17.50;99.90
24250;DHT22;12379;49.820;8.648;2023-05-07T06:33:45;17.40;99.90
24250;DHT22;12379;49.820;8.648;2023-05-07T06:36:11;17.40;99.90
24250;DHT22;12379;49.820;8.648;2023-05-07T06:38:37;17.40;99.90
24250;DHT22;12379;49.820;8.648;2023-05-07T06:41:02;17.40;99.90
24250;DHT22;12379;49.820;8.648;2023-05-07T06:43:28;17.40;99.90
24250;DHT22;12379;49.820;8.648;2023-05-07T06:45:53;17.50;99.90
24250;DHT22;12379;49.820;8.648;2023-05-07T06:48:19;17.50;99.90
24250;DHT22;12379;49.820;8.648;2023-05-07T06:50:45;17.50;99.90
24250;DHT22;12379;49.820;8.648;2023-05-07T06:53:11;17.70;99.90
24250;DHT22;12379;49.820;8.648;2023-05-07T06:55:36;17.70;99.90
24250;DHT22;12379;49.820;8.648;2023-05-07T06:58:04;17.70;99.90
24250;DHT22;12379;49.820;8.648;2023-05-07T07:00:32;17.60;99.90
24250;DHT22;12379;49.820;8.648;2023-05-07T07:02:58;17.70;99.90
24250;DHT22;12379;49.820;8.648;2023-05-07T07:05:24;17.60;99.90
24250;DHT22;12379;49.820;8.648;2023-05-07T07:07:50;17.60;99.90
24250;DHT22;12379;49.820;8.648;2023-05-07T07:10:21;17.50;99.90
24250;DHT22;12379;49.820;8.648;2023-05-07T07:12:48;17.40;99.90
24250;DHT22;12379;49.820;8.648;2023-05-07T07:15:14;17.40;99.90
24250;DHT22;12379;49.820;8.648;2023-05-07T07:17:39;17.50;99.90
24250;DHT22;12379;49.820;8.648;2023-05-07T07:20:05;17.50;99.90
24250;DHT22;12379;49.820;8.648;2023-05-07T07:22:31;17.60;99.90
24250;DHT22;12379;49.820;8.648;2023-05-07T07:24:56;17.50;99.90
24250;DHT22;12379;49.820;8.648;2023-05-07T07:27:22;17.50;99.90
24250;DHT22;12379;49.820;8.648;2023-05-07T07:29:47;17.40;99.90
24250;DHT22;12379;49.820;8.648;2023-05-07T07:32:13;17.60;99.90
24250;DHT22;12379;49.820;8.648;2023-05-07T07:34:38;17.70;99.90
24250;DHT22;12379;49.820;8.648;2023-05-07T07:37:04;17.60;99.90
24250;DHT22;12379;49.820;8.648;2023-05-07T07:39:35;17.70;99.90
24250;DHT22;12379;49.820;8.648;2023-05-07T07:42:02;17.70;99.90
24250;DHT22;12379;49.820;8.648;2023-05-07T07:44:28;17.80;99.90
24250;DHT22;12379;49.820;8.648;2023-05-07T07:46:54;18.00;99.90
24250;DHT22;12379;49.820;8.648;2023-05-07T07:49:19;18.00;99.90
24250;DHT22;12379;49.820;8.648;2023-05-07T07:51:45;18.10;99.90
24250;DHT22;12379;49.820;8.648;2023-05-07T07:54:10;18.10;99.90
24250;DHT22;12379;49.820;8.648;2023-05-07T07:56:36;18.10;99.90
24250;DHT22;12379;49.820;8.648;2023-05-07T07:59:02;18.20;99.90
24250;DHT22;12379;49.820;8.648;2023-05-07T08:01:30;18.20;99.90
24250;DHT22;12379;49.820;8.648;2023-05-07T08:03:56;18.40;99.90
24250;DHT22;12379;49.820;8.648;2023-05-07T08:06:24;18.60;99.90
24250;DHT22;12379;49.820;8.648;2023-05-07T08:08:50;18.70;99.90
24250;DHT22;12379;49.820;8.648;2023-05-07T08:11:16;18.70;99.90
24250;DHT22;12379;49.820;8.648;2023-05-07T08:13:42;18.70;99.90
24250;DHT22;12379;49.820;8.648;2023-05-07T08:16:07;18.80;99.90
24250;DHT22;12379;49.820;8.648;2023-05-07T08:18:33;18.60;99.90
24250;DHT22;12379;49.820;8.648;2023-05-07T08:20:59;18.70;99.90
24250;DHT22;12379;49.820;8.648;2023-05-07T08:23:24;18.80;99.90
24250;DHT22;12379;49.820;8.648;2023-05-07T08:25:50;18.80;99.90
24250;DHT22;12379;49.820;8.648;2023-05-07T08:28:16;18.90;99.90
24250;DHT22;12379;49.820;8.648;2023-05-07T08:30:42;18.80;99.90
24250;DHT22;12379;49.820;8.648;2023-05-07T08:33:08;18.70;99.90
24250;DHT22;12379;49.820;8.648;2023-05-07T08:35:34;18.80;99.90
24250;DHT22;12379;49.820;8.648;2023-05-07T08:38:00;18.80;99.90
24250;DHT22;12379;49.820;8.648;2023-05-07T08:40:26;18.80;99.90
24250;DHT22;12379;49.820;8.648;2023-05-07T08:42:53;18.90;99.90
24250;DHT22;12379;49.820;8.648;2023-05-07T08:45:19;19.00;99.90
24250;DHT22;12379;49.820;8.648;2023-05-07T08:47:51;18.90;99.90
24250;DHT22;12379;49.820;8.648;2023-05-07T08:50:18;18.80;99.90
24250;DHT22;12379;49.820;8.648;2023-05-07T08:52:45;18.80;99.90
24250;DHT22;12379;49.820;8.648;2023-05-07T08:55:12;18.90;99.90
24250;DHT22;12379;49.820;8.648;2023-05-07T08:57:38;19.00;99.90
24250;DHT22;12379;49.820;8.648;2023-05-07T09:00:05;19.20;99.90
24250;DHT22;12379;49.820;8.648;2023-05-07T09:02:32;19.50;99.90
24250;DHT22;12379;49.820;8.648;2023-05-07T09:04:59;19.50;99.90
24250;DHT22;12379;49.820;8.648;2023-05-07T09:07:25;19.70;99.90
24250;DHT22;12379;49.820;8.648;2023-05-07T09:09:51;19.90;99.90
24250;DHT22;12379;49.820;8.648;2023-05-07T09:12:18;20.00;99.90
24250;DHT22;12379;49.820;8.648;2023-05-07T09:14:44;20.00;99.90
24250;DHT22;12379;49.820;8.648;2023-05-07T09:17:11;19.90;99.90
24250;DHT22;12379;49.820;8.648;2023-05-07T09:19:36;20.00;99.90
24250;DHT22;12379;49.820;8.648;2023-05-07T09:22:04;20.10;99.90
24250;DHT22;12379;49.820;8.648;2023-05-07T09:24:30;20.00;99.90
24250;DHT22;12379;49.820;8.648;2023-05-07T09:27:00;19.90;99.90
24250;DHT22;12379;49.820;8.648;2023-05-07T09:29:26;20.00;99.90
24250;DHT22;12379;49.820;8.648;2023-05-07T09:31:54;20.10;99.90
24250;DHT22;12379;49.820;8.648;2023-05-07T09:34:20;20.30;99.90
24250;DHT22;12379;49.820;8.648;2023-05-07T09:36:46;20.60;99.90
24250;DHT22;12379;49.820;8.648;2023-05-07T09:39:12;20.90;99.90
24250;DHT22;12379;49.820;8.648;2023-05-07T09:41:45;21.20;99.90
24250;DHT22;12379;49.820;8.648;2023-05-07T09:44:11;21.20;99.90
24250;DHT22;12379;49.820;8.648;2023-05-07T09:46:36;21.30;99.90
24250;DHT22;12379;49.820;8.648;2023-05-07T09:49:06;21.40;99.90
24250;DHT22;12379;49.820;8.648;2023-05-07T09:51:48;21.60;99.90
24250;DHT22;12379;49.820;8.648;2023-05-07T09:54:15;21.90;99.90
24250;DHT22;12379;49.820;8.648;2023-05-07T09:56:40;21.90;99.90
24250;DHT22;12379;49.820;8.648;2023-05-07T09:59:07;22.00;99.90
24250;DHT22;12379;49.820;8.648;2023-05-07T10:01:36;22.20;99.90
24250;DHT22;12379;49.820;8.648;2023-05-07T10:04:02;22.30;99.90
24250;DHT22;12379;49.820;8.648;2023-05-07T10:06:30;22.30;99.90
24250;DHT22;12379;49.820;8.648;2023-05-07T10:08:56;22.30;99.90
24250;DHT22;12379;49.820;8.648;2023-05-07T10:11:22;22.20;99.90
24250;DHT22;12379;49.820;8.648;2023-05-07T10:13:48;22.10;99.90
24250;DHT22;12379;49.820;8.648;2023-05-07T10:16:14;22.00;99.90
24250;DHT22;12379;49.820;8.648;2023-05-07T10:18:41;22.00;99.90
24250;DHT22;12379;49.820;8.648;2023-05-07T10:21:20;22.20;99.90
24250;DHT22;12379;49.820;8.648;2023-05-07T10:23:51;22.20;99.90
24250;DHT22;12379;49.820;8.648;2023-05-07T10:26:20;22.20;99.90
24250;DHT22;12379;49.820;8.648;2023-05-07T10:28:50;22.40;99.90
24250;DHT22;12379;49.820;8.648;2023-05-07T10:31:40;22.80;99.90
24250;DHT22;12379;49.820;8.648;2023-05-07T10:34:18;22.70;99.90
24250;DHT22;12379;49.820;8.648;2023-05-07T10:36:45;22.60;99.90
24250;DHT22;12379;49.820;8.648;2023-05-07T10:39:11;22.30;99.90
24250;DHT22;12379;49.820;8.648;2023-05-07T10:41:39;22.40;99.90
24250;DHT22;12379;49.820;8.648;2023-05-07T10:44:04;22.80;99.90
24250;DHT22;12379;49.820;8.648;2023-05-07T10:46:31;23.00;99.90
24250;DHT22;12379;49.820;8.648;2023-05-07T10:51:26;23.50;99.90
24250;DHT22;12379;49.820;8.648;2023-05-07T10:56:37;24.00;99.50
24250;DHT22;12379;49.820;8.648;2023-05-07T11:01:56;23.70;98.70
24250;DHT22;12379;49.820;8.648;2023-05-07T11:04:23;23.90;98.80
24250;DHT22;12379;49.820;8.648;2023-05-07T11:15:10;23.00;99.60
24250;DHT22;12379;49.820;8.648;2023-05-07T11:17:55;23.00;99.40
24250;DHT22;12379;49.820;8.648;2023-05-07T11:20:21;23.20;99.50
24250;DHT22;12379;49.820;8.648;2023-05-07T11:23:06;23.10;99.60
24250;DHT22;12379;49.820;8.648;2023-05-07T11:25:32;22.90;99.80
24250;DHT22;12379;49.820;8.648;2023-05-07T11:28:05;23.00;99.70
24250;DHT22;12379;49.820;8.648;2023-05-07T11:30:31;22.90;99.50
24250;DHT22;12379;49.820;8.648;2023-05-07T11:32:57;22.80;99.10
24250;DHT22;12379;49.820;8.648;2023-05-07T11:35:23;23.10;99.50
24250;DHT22;12379;49.820;8.648;2023-05-07T11:37:50;23.10;99.50
24250;DHT22;12379;49.820;8.648;2023-05-07T11:40:23;23.40;99.00
24250;DHT22;12379;49.820;8.648;2023-05-07T11:42:48;23.30;99.10
24250;DHT22;12379;49.820;8.648;2023-05-07T11:45:23;22.70;98.80
24250;DHT22;12379;49.820;8.648;2023-05-07T11:47:50;22.90;99.40
24250;DHT22;12379;49.820;8.648;2023-05-07T11:50:16;23.30;99.40
24250;DHT22;12379;49.820;8.648;2023-05-07T11:52:50;23.20;98.40
24250;DHT22;12379;49.820;8.648;2023-05-07T11:55:18;23.30;98.60
24250;DHT22;12379;49.820;8.648;2023-05-07T11:57:44;23.60;98.50
24250;DHT22;12379;49.820;8.648;2023-05-07T12:00:10;24.00;98.50
24250;DHT22;12379;49.820;8.648;2023-05-07T12:02:36;24.20;97.60
24250;DHT22;12379;49.820;8.648;2023-05-07T12:05:02;24.10;96.70
24250;DHT22;12379;49.820;8.648;2023-05-07T12:07:27;24.00;96.50
24250;DHT22;12379;49.820;8.648;2023-05-07T12:09:53;24.30;97.30
24250;DHT22;12379;49.820;8.648;2023-05-07T12:12:19;24.60;96.60
24250;DHT22;12379;49.820;8.648;2023-05-07T12:14:45;24.60;95.70
24250;DHT22;12379;49.820;8.648;2023-05-07T12:17:12;24.30;95.60
24250;DHT22;12379;49.820;8.648;2023-05-07T12:19:40;24.30;95.50
24250;DHT22;12379;49.820;8.648;2023-05-07T12:22:09;24.10;96.00
24250;DHT22;12379;49.820;8.648;2023-05-07T12:24:56;24.10;95.80
24250;DHT22;12379;49.820;8.648;2023-05-07T12:27:22;23.80;95.30
24250;DHT22;12379;49.820;8.648;2023-05-07T12:29:49;24.00;95.50
24250;DHT22;12379;49.820;8.648;2023-05-07T12:32:20;23.90;94.70
24250;DHT22;12379;49.820;8.648;2023-05-07T12:34:47;23.90;95.10
24250;DHT22;12379;49.820;8.648;2023-05-07T12:37:14;24.00;94.90
24250;DHT22;12379;49.820;8.648;2023-05-07T12:40:02;24.20;94.80
24250;DHT22;12379;49.820;8.648;2023-05-07T12:42:35;24.40;94.40
24250;DHT22;12379;49.820;8.648;2023-05-07T12:45:11;24.60;94.40
24250;DHT22;12379;49.820;8.648;2023-05-07T12:47:37;24.40;94.20
24250;DHT22;12379;49.820;8.648;2023-05-07T12:50:05;24.60;94.40
24250;DHT22;12379;49.820;8.648;2023-05-07T12:52:31;24.90;94.00
24250;DHT22;12379;49.820;8.648;2023-05-07T12:55:04;25.20;93.70
24250;DHT22;12379;49.820;8.648;2023-05-07T12:57:30;25.30;93.30
24250;DHT22;12379;49.820;8.648;2023-05-07T13:00:02;25.40;93.10
24250;DHT22;12379;49.820;8.648;2023-05-07T13:02:38;25.50;92.50
24250;DHT22;12379;49.820;8.648;2023-05-07T13:05:04;25.00;92.90
24250;DHT22;12379;49.820;8.648;2023-05-07T13:07:30;25.00;92.90
24250;DHT22;12379;49.820;8.648;2023-05-07T13:09:55;24.80;93.10
24250;DHT22;12379;49.820;8.648;2023-05-07T13:12:21;24.80;92.90
24250;DHT22;12379;49.820;8.648;2023-05-07T13:14:46;24.80;92.70
24250;DHT22;12379;49.820;8.648;2023-05-07T13:17:12;24.60;93.10
24250;DHT22;12379;49.820;8.648;2023-05-07T13:19:37;24.70;93.10
24250;DHT22;12379;49.820;8.648;2023-05-07T13:22:03;24.80;92.40
24250;DHT22;12379;49.820;8.648;2023-05-07T13:24:29;24.80;92.50
24250;DHT22;12379;49.820;8.648;2023-05-07T13:26:55;24.90;92.20
24250;DHT22;12379;49.820;8.648;2023-05-07T13:29:21;24.70;92.70
24250;DHT22;12379;49.820;8.648;2023-05-07T13:31:54;24.50;91.90
24250;DHT22;12379;49.820;8.648;2023-05-07T13:34:20;24.50;92.20
24250;DHT22;12379;49.820;8.648;2023-05-07T13:36:45;24.60;92.30
24250;DHT22;12379;49.820;8.648;2023-05-07T13:39:11;24.70;92.00
24250;DHT22;12379;49.820;8.648;2023-05-07T13:41:36;24.70;91.50
24250;DHT22;12379;49.820;8.648;2023-05-07T13:44:02;24.80;91.20
24250;DHT22;12379;49.820;8.648;2023-05-07T13:46:28;24.90;90.80
24250;DHT22;12379;49.820;8.648;2023-05-07T13:48:55;25.10;91.60
24250;DHT22;12379;49.820;8.648;2023-05-07T13:51:21;25.10;90.60
24250;DHT22;12379;49.820;8.648;2023-05-07T13:53:46;25.00;90.90
24250;DHT22;12379;49.820;8.648;2023-05-07T13:56:12;25.00;90.80
24250;DHT22;12379;49.820;8.648;2023-05-07T13:58:38;25.00;90.50
24250;DHT22;12379;49.820;8.648;2023-05-07T14:01:07;24.90;90.90
24250;DHT22;12379;49.820;8.648;2023-05-07T14:03:33;24.90;90.60
24250;DHT22;12379;49.820;8.648;2023-05-07T14:05:59;24.80;89.90
24250;DHT22;12379;49.820;8.648;2023-05-07T14:08:26;24.80;90.80
24250;DHT22;12379;49.820;8.648;2023-05-07T14:10:52;24.80;91.30
24250;DHT22;12379;49.820;8.648;2023-05-07T14:13:18;24.60;90.60
24250;DHT22;12379;49.820;8.648;2023-05-07T14:15:43;24.50;90.90
24250;DHT22;12379;49.820;8.648;2023-05-07T14:18:12;24.60;90.90
24250;DHT22;12379;49.820;8.648;2023-05-07T14:20:38;24.60;90.90
24250;DHT22;12379;49.820;8.648;2023-05-07T14:23:03;24.70;90.10
24250;DHT22;12379;49.820;8.648;2023-05-07T14:25:29;24.50;90.60
24250;DHT22;12379;49.820;8.648;2023-05-07T14:27:55;24.40;90.40
24250;DHT22;12379;49.820;8.648;2023-05-07T14:30:21;24.30;90.20
24250;DHT22;12379;49.820;8.648;2023-05-07T14:32:49;24.10;90.50
24250;DHT22;12379;49.820;8.648;2023-05-07T14:35:15;24.10;90.80
24250;DHT22;12379;49.820;8.648;2023-05-07T14:37:40;24.10;90.50
24250;DHT22;12379;49.820;8.648;2023-05-07T14:40:06;24.00;90.10
24250;DHT22;12379;49.820;8.648;2023-05-07T14:42:32;24.10;90.50
24250;DHT22;12379;49.820;8.648;2023-05-07T14:44:59;24.20;90.60
24250;DHT22;12379;49.820;8.648;2023-05-07T14:47:24;24.20;89.70
24250;DHT22;12379;49.820;8.648;2023-05-07T14:49:50;24.10;89.60
24250;DHT22;12379;49.820;8.648;2023-05-07T14:52:15;24.20;90.10
24250;DHT22;12379;49.820;8.648;2023-05-07T14:54:41;24.20;88.60
24250;DHT22;12379;49.820;8.648;2023-05-07T14:57:08;24.00;88.90
24250;DHT22;12379;49.820;8.648;2023-05-07T14:59:35;23.90;89.70
24250;DHT22;12379;49.820;8.648;2023-05-07T15:02:01;23.90;90.00
24250;DHT22;12379;49.820;8.648;2023-05-07T15:04:26;23.80;90.00
24250;DHT22;12379;49.820;8.648;2023-05-07T15:06:52;23.70;90.50
24250;DHT22;12379;49.820;8.648;2023-05-07T15:09:19;23.70;90.70
24250;DHT22;12379;49.820;8.648;2023-05-07T15:11:45;23.60;91.00
24250;DHT22;12379;49.820;8.648;2023-05-07T15:14:10;23.60;91.40
24250;DHT22;12379;49.820;8.648;2023-05-07T15:16:36;23.50;91.50
24250;DHT22;12379;49.820;8.648;2023-05-07T15:19:01;23.50;91.50
24250;DHT22;12379;49.820;8.648;2023-05-07T15:21:27;23.40;91.80
24250;DHT22;12379;49.820;8.648;2023-05-07T15:23:52;23.30;91.80
24250;DHT22;12379;49.820;8.648;2023-05-07T15:26:18;23.20;91.90
24250;DHT22;12379;49.820;8.648;2023-05-07T15:28:43;23.20;92.00
24250;DHT22;12379;49.820;8.648;2023-05-07T15:31:09;23.10;92.00
24250;DHT22;12379;49.820;8.648;2023-05-07T15:33:34;23.10;92.30
24250;DHT22;12379;49.820;8.648;2023-05-07T15:36:00;23.10;92.50
24250;DHT22;12379;49.820;8.648;2023-05-07T15:38:27;23.10;92.50
24250;DHT22;12379;49.820;8.648;2023-05-07T15:40:52;23.00;93.30
24250;DHT22;12379;49.820;8.648;2023-05-07T15:43:18;22.90;94.20